sensor_id;sensor_type;location;lat;lon;timestamp;P1;durP1;ratioP1;P2;durP2;ratioP2
64520;SDS011;50896;46.714;17.322;2023-02-15T00:01:34;57.83;;;27.85;;
64520;SDS011;50896;46.714;17.322;2023-02-15T00:04:02;58.92;;;30.85;;
64520;SDS011;50896;46.714;17.322;2023-02-15T00:06:30;62.40;;;30.10;;
64520;SDS011;50896;46.714;17.322;2023-02-15T00:08:57;64.82;;;32.47;;
64520;SDS011;50896;46.714;17.322;2023-02-15T00:11:25;51.65;;;26.50;;
64520;SDS011;50896;46.714;17.322;2023-02-15T00:16:37;52.35;;;27.25;;
64520;SDS011;50896;46.714;17.322;2023-02-15T00:19:05;50.05;;;24.98;;
64520;SDS011;50896;46.714;17.322;2023-02-15T00:21:34;55.20;;;25.88;;
64520;SDS011;50896;46.714;17.322;2023-02-15T00:24:04;53.97;;;26.45;;
64520;SDS011;50896;46.714;17.322;2023-02-15T00:26:32;56.25;;;25.35;;
64520;SDS011;50896;46.714;17.322;2023-02-15T00:29:00;54.22;;;26.60;;
64520;SDS011;50896;46.714;17.322;2023-02-15T00:31:27;50.42;;;24.92;;
64520;SDS011;50896;46.714;17.322;2023-02-15T00:34:05;53.72;;;25.77;;
64520;SDS011;50896;46.714;17.322;2023-02-15T00:36:34;49.53;;;23.70;;
64520;SDS011;50896;46.714;17.322;2023-02-15T00:39:01;44.72;;;22.23;;
64520;SDS011;50896;46.714;17.322;2023-02-15T00:41:28;56.53;;;26.67;;
64520;SDS011;50896;46.714;17.322;2023-02-15T00:43:54;54.17;;;25.15;;
64520;SDS011;50896;46.714;17.322;2023-02-15T00:46:21;55.58;;;26.02;;
64520;SDS011;50896;46.714;17.322;2023-02-15T00:48:48;51.15;;;24.85;;
64520;SDS011;50896;46.714;17.322;2023-02-15T00:51:16;54.20;;;24.83;;
64520;SDS011;50896;46.714;17.322;2023-02-15T00:53:43;47.20;;;23.70;;
64520;SDS011;50896;46.714;17.322;2023-02-15T00:56:10;51.63;;;24.52;;
64520;SDS011;50896;46.714;17.322;2023-02-15T00:58:37;49.65;;;24.05;;
64520;SDS011;50896;46.714;17.322;2023-02-15T01:03:36;49.55;;;23.38;;
64520;SDS011;50896;46.714;17.322;2023-02-15T01:06:03;53.03;;;25.23;;
64520;SDS011;50896;46.714;17.322;2023-02-15T01:08:30;53.28;;;25.55;;
64520;SDS011;50896;46.714;17.322;2023-02-15T01:10:59;53.22;;;25.10;;
64520;SDS011;50896;46.714;17.322;2023-02-15T01:13:30;54.35;;;26.40;;
64520;SDS011;50896;46.714;17.322;2023-02-15T01:15:57;51.85;;;25.27;;
64520;SDS011;50896;46.714;17.322;2023-02-15T01:18:24;54.25;;;26.13;;
64520;SDS011;50896;46.714;17.322;2023-02-15T01:20:51;55.13;;;26.70;;
64520;SDS011;50896;46.714;17.322;2023-02-15T01:23:19;52.03;;;26.00;;
64520;SDS011;50896;46.714;17.322;2023-02-15T01:25:46;55.95;;;26.73;;
64520;SDS011;50896;46.714;17.322;2023-02-15T01:28:12;53.83;;;25.45;;
64520;SDS011;50896;46.714;17.322;2023-02-15T01:30:39;53.80;;;27.17;;
64520;SDS011;50896;46.714;17.322;2023-02-15T01:33:07;55.40;;;26.60;;
64520;SDS011;50896;46.714;17.322;2023-02-15T01:35:37;57.70;;;27.23;;
64520;SDS011;50896;46.714;17.322;2023-02-15T01:38:04;53.95;;;27.20;;
64520;SDS011;50896;46.714;17.322;2023-02-15T01:40:31;60.42;;;27.80;;
64520;SDS011;50896;46.714;17.322;2023-02-15T01:42:58;52.53;;;25.30;;
64520;SDS011;50896;46.714;17.322;2023-02-15T01:45:29;61.17;;;27.85;;
64520;SDS011;50896;46.714;17.322;2023-02-15T01:50:43;51.78;;;25.30;;
64520;SDS011;50896;46.714;17.322;2023-02-15T01:58:31;53.10;;;26.42;;
64520;SDS011;50896;46.714;17.322;2023-02-15T02:01:00;50.07;;;23.83;;
64520;SDS011;50896;46.714;17.322;2023-02-15T02:06:29;50.55;;;25.33;;
64520;SDS011;50896;46.714;17.322;2023-02-15T02:08:59;58.75;;;27.85;;
64520;SDS011;50896;46.714;17.322;2023-02-15T02:11:27;54.40;;;26.27;;
64520;SDS011;50896;46.714;17.322;2023-02-15T02:13:54;54.00;;;26.45;;
64520;SDS011;50896;46.714;17.322;2023-02-15T02:42:02;55.23;;;25.87;;
64520;SDS011;50896;46.714;17.322;2023-02-15T02:44:42;51.58;;;25.23;;
64520;SDS011;50896;46.714;17.322;2023-02-15T02:47:33;49.70;;;23.88;;
64520;SDS011;50896;46.714;17.322;2023-02-15T02:50:07;49.25;;;24.10;;
64520;SDS011;50896;46.714;17.322;2023-02-15T02:52:44;46.58;;;23.10;;
64520;SDS011;50896;46.714;17.322;2023-02-15T02:57:46;46.60;;;22.48;;
64520;SDS011;50896;46.714;17.322;2023-02-15T03:00:14;44.30;;;21.25;;
64520;SDS011;50896;46.714;17.322;2023-02-15T03:02:42;45.80;;;22.83;;
64520;SDS011;50896;46.714;17.322;2023-02-15T03:05:15;47.53;;;23.25;;
64520;SDS011;50896;46.714;17.322;2023-02-15T03:07:48;44.80;;;22.10;;
64520;SDS011;50896;46.714;17.322;2023-02-15T03:10:18;46.53;;;22.60;;
64520;SDS011;50896;46.714;17.322;2023-02-15T03:12:49;43.80;;;22.30;;
64520;SDS011;50896;46.714;17.322;2023-02-15T03:15:25;44.72;;;22.73;;
64520;SDS011;50896;46.714;17.322;2023-02-15T03:20:49;44.92;;;21.63;;
64520;SDS011;50896;46.714;17.322;2023-02-15T03:23:20;43.72;;;22.83;;
64520;SDS011;50896;46.714;17.322;2023-02-15T03:25:53;48.78;;;23.27;;
64520;SDS011;50896;46.714;17.322;2023-02-15T03:28:42;48.88;;;22.95;;
64520;SDS011;50896;46.714;17.322;2023-02-15T03:31:12;44.72;;;22.00;;
64520;SDS011;50896;46.714;17.322;2023-02-15T03:33:44;50.78;;;23.95;;
64520;SDS011;50896;46.714;17.322;2023-02-15T03:41:39;43.92;;;22.25;;
64520;SDS011;50896;46.714;17.322;2023-02-15T03:44:18;47.95;;;24.15;;
64520;SDS011;50896;46.714;17.322;2023-02-15T03:46:56;46.57;;;22.70;;
64520;SDS011;50896;46.714;17.322;2023-02-15T03:53:03;51.90;;;23.05;;
64520;SDS011;50896;46.714;17.322;2023-02-15T03:55:34;48.58;;;23.40;;
64520;SDS011;50896;46.714;17.322;2023-02-15T03:58:02;47.95;;;22.50;;
64520;SDS011;50896;46.714;17.322;2023-02-15T04:00:57;49.83;;;24.73;;
64520;SDS011;50896;46.714;17.322;2023-02-15T04:03:45;53.30;;;25.50;;
64520;SDS011;50896;46.714;17.322;2023-02-15T04:06:19;48.28;;;23.95;;
64520;SDS011;50896;46.714;17.322;2023-02-15T04:08:46;51.13;;;25.42;;
64520;SDS011;50896;46.714;17.322;2023-02-15T04:11:31;52.08;;;25.48;;
64520;SDS011;50896;46.714;17.322;2023-02-15T04:13:58;52.63;;;25.88;;
64520;SDS011;50896;46.714;17.322;2023-02-15T04:16:25;48.97;;;24.02;;
64520;SDS011;50896;46.714;17.322;2023-02-15T04:18:52;52.53;;;25.45;;
64520;SDS011;50896;46.714;17.322;2023-02-15T04:21:38;53.20;;;25.95;;
64520;SDS011;50896;46.714;17.322;2023-02-15T04:24:23;55.85;;;25.00;;
64520;SDS011;50896;46.714;17.322;2023-02-15T04:27:08;56.72;;;24.38;;
64520;SDS011;50896;46.714;17.322;2023-02-15T04:29:35;55.92;;;25.42;;
64520;SDS011;50896;46.714;17.322;2023-02-15T04:32:02;53.13;;;26.80;;
64520;SDS011;50896;46.714;17.322;2023-02-15T04:34:29;51.85;;;25.30;;
64520;SDS011;50896;46.714;17.322;2023-02-15T04:36:56;50.40;;;26.33;;
64520;SDS011;50896;46.714;17.322;2023-02-15T04:39:23;51.75;;;24.88;;
64520;SDS011;50896;46.714;17.322;2023-02-15T04:41:50;49.55;;;25.02;;
64520;SDS011;50896;46.714;17.322;2023-02-15T04:44:17;51.83;;;24.38;;
64520;SDS011;50896;46.714;17.322;2023-02-15T04:46:43;52.60;;;25.05;;
64520;SDS011;50896;46.714;17.322;2023-02-15T04:49:10;54.47;;;25.75;;
64520;SDS011;50896;46.714;17.322;2023-02-15T04:51:37;54.15;;;25.75;;
64520;SDS011;50896;46.714;17.322;2023-02-15T04:54:04;54.95;;;25.63;;
64520;SDS011;50896;46.714;17.322;2023-02-15T04:56:31;50.10;;;25.38;;
64520;SDS011;50896;46.714;17.322;2023-02-15T04:58:59;54.20;;;26.13;;
64520;SDS011;50896;46.714;17.322;2023-02-15T05:01:26;55.28;;;26.83;;
64520;SDS011;50896;46.714;17.322;2023-02-15T05:03:53;56.25;;;27.92;;
64520;SDS011;50896;46.714;17.322;2023-02-15T05:06:20;55.85;;;25.90;;
64520;SDS011;50896;46.714;17.322;2023-02-15T05:08:47;55.78;;;26.50;;
64520;SDS011;50896;46.714;17.322;2023-02-15T05:11:13;52.50;;;26.08;;
64520;SDS011;50896;46.714;17.322;2023-02-15T05:13:41;61.70;;;30.42;;
64520;SDS011;50896;46.714;17.322;2023-02-15T05:16:07;60.58;;;30.60;;
64520;SDS011;50896;46.714;17.322;2023-02-15T05:18:34;61.15;;;29.35;;
64520;SDS011;50896;46.714;17.322;2023-02-15T05:21:01;67.43;;;31.88;;
64520;SDS011;50896;46.714;17.322;2023-02-15T05:23:28;60.88;;;30.35;;
64520;SDS011;50896;46.714;17.322;2023-02-15T05:25:55;62.03;;;31.48;;
64520;SDS011;50896;46.714;17.322;2023-02-15T05:28:40;56.78;;;28.95;;
64520;SDS011;50896;46.714;17.322;2023-02-15T05:31:12;59.78;;;29.00;;
64520;SDS011;50896;46.714;17.322;2023-02-15T05:33:45;57.75;;;28.75;;
64520;SDS011;50896;46.714;17.322;2023-02-15T05:36:12;58.03;;;29.70;;
64520;SDS011;50896;46.714;17.322;2023-02-15T05:38:39;63.72;;;30.95;;
64520;SDS011;50896;46.714;17.322;2023-02-15T05:41:06;61.60;;;29.23;;
64520;SDS011;50896;46.714;17.322;2023-02-15T05:43:35;62.03;;;30.27;;
64520;SDS011;50896;46.714;17.322;2023-02-15T05:46:02;55.53;;;27.73;;
64520;SDS011;50896;46.714;17.322;2023-02-15T05:48:30;55.55;;;27.90;;
64520;SDS011;50896;46.714;17.322;2023-02-15T05:50:58;56.78;;;28.85;;
64520;SDS011;50896;46.714;17.322;2023-02-15T05:53:27;60.10;;;29.13;;
64520;SDS011;50896;46.714;17.322;2023-02-15T05:55:55;66.60;;;30.95;;
64520;SDS011;50896;46.714;17.322;2023-02-15T05:58:26;58.10;;;29.55;;
64520;SDS011;50896;46.714;17.322;2023-02-15T06:00:55;61.38;;;29.65;;
64520;SDS011;50896;46.714;17.322;2023-02-15T06:03:22;60.65;;;29.88;;
64520;SDS011;50896;46.714;17.322;2023-02-15T06:05:50;59.50;;;29.73;;
64520;SDS011;50896;46.714;17.322;2023-02-15T06:08:16;63.55;;;30.90;;
64520;SDS011;50896;46.714;17.322;2023-02-15T06:10:45;62.13;;;30.65;;
64520;SDS011;50896;46.714;17.322;2023-02-15T06:13:12;64.47;;;29.45;;
64520;SDS011;50896;46.714;17.322;2023-02-15T06:15:39;65.55;;;31.38;;
64520;SDS011;50896;46.714;17.322;2023-02-15T06:18:06;68.68;;;31.73;;
64520;SDS011;50896;46.714;17.322;2023-02-15T06:20:32;70.80;;;31.88;;
64520;SDS011;50896;46.714;17.322;2023-02-15T06:22:59;66.85;;;31.48;;
64520;SDS011;50896;46.714;17.322;2023-02-15T06:25:26;61.03;;;29.05;;
64520;SDS011;50896;46.714;17.322;2023-02-15T06:27:53;62.95;;;29.25;;
64520;SDS011;50896;46.714;17.322;2023-02-15T06:30:19;62.88;;;29.80;;
64520;SDS011;50896;46.714;17.322;2023-02-15T06:32:46;56.67;;;27.88;;
64520;SDS011;50896;46.714;17.322;2023-02-15T06:35:14;56.42;;;27.73;;
64520;SDS011;50896;46.714;17.322;2023-02-15T06:37:41;60.15;;;28.45;;
64520;SDS011;50896;46.714;17.322;2023-02-15T06:40:08;58.80;;;28.90;;
64520;SDS011;50896;46.714;17.322;2023-02-15T06:42:35;63.28;;;30.10;;
64520;SDS011;50896;46.714;17.322;2023-02-15T06:45:02;58.33;;;28.88;;
64520;SDS011;50896;46.714;17.322;2023-02-15T06:47:30;66.85;;;31.35;;
64520;SDS011;50896;46.714;17.322;2023-02-15T06:49:57;60.97;;;28.60;;
64520;SDS011;50896;46.714;17.322;2023-02-15T06:52:24;56.92;;;28.90;;
64520;SDS011;50896;46.714;17.322;2023-02-15T06:54:51;58.40;;;27.77;;
64520;SDS011;50896;46.714;17.322;2023-02-15T06:57:18;59.28;;;29.80;;
64520;SDS011;50896;46.714;17.322;2023-02-15T06:59:44;59.47;;;28.70;;
64520;SDS011;50896;46.714;17.322;2023-02-15T07:02:11;60.25;;;29.58;;
64520;SDS011;50896;46.714;17.322;2023-02-15T07:04:38;60.30;;;28.20;;
64520;SDS011;50896;46.714;17.322;2023-02-15T07:07:09;60.10;;;30.02;;
64520;SDS011;50896;46.714;17.322;2023-02-15T07:09:37;60.28;;;29.67;;
64520;SDS011;50896;46.714;17.322;2023-02-15T07:12:05;60.03;;;29.45;;
64520;SDS011;50896;46.714;17.322;2023-02-15T07:14:51;63.08;;;29.05;;
64520;SDS011;50896;46.714;17.322;2023-02-15T07:17:18;64.20;;;30.10;;
64520;SDS011;50896;46.714;17.322;2023-02-15T07:20:09;62.67;;;29.35;;
64520;SDS011;50896;46.714;17.322;2023-02-15T07:22:37;57.83;;;28.80;;
64520;SDS011;50896;46.714;17.322;2023-02-15T07:25:05;58.25;;;29.73;;
64520;SDS011;50896;46.714;17.322;2023-02-15T07:27:33;64.03;;;30.13;;
64520;SDS011;50896;46.714;17.322;2023-02-15T07:30:01;59.75;;;29.55;;
64520;SDS011;50896;46.714;17.322;2023-02-15T07:32:29;61.08;;;28.67;;
64520;SDS011;50896;46.714;17.322;2023-02-15T07:34:57;60.65;;;28.60;;
64520;SDS011;50896;46.714;17.322;2023-02-15T07:37:25;55.95;;;29.17;;
64520;SDS011;50896;46.714;17.322;2023-02-15T07:39:52;54.53;;;28.25;;
64520;SDS011;50896;46.714;17.322;2023-02-15T07:42:19;56.30;;;28.38;;
64520;SDS011;50896;46.714;17.322;2023-02-15T07:44:47;54.63;;;29.20;;
64520;SDS011;50896;46.714;17.322;2023-02-15T07:47:14;58.97;;;30.27;;
64520;SDS011;50896;46.714;17.322;2023-02-15T07:49:41;61.40;;;30.52;;
64520;SDS011;50896;46.714;17.322;2023-02-15T07:52:08;59.90;;;30.13;;
64520;SDS011;50896;46.714;17.322;2023-02-15T07:54:35;62.70;;;28.88;;
64520;SDS011;50896;46.714;17.322;2023-02-15T07:57:01;60.35;;;30.45;;
64520;SDS011;50896;46.714;17.322;2023-02-15T07:59:28;72.60;;;35.25;;
64520;SDS011;50896;46.714;17.322;2023-02-15T08:01:55;66.35;;;33.90;;
64520;SDS011;50896;46.714;17.322;2023-02-15T08:04:23;69.57;;;34.03;;
64520;SDS011;50896;46.714;17.322;2023-02-15T08:06:51;65.78;;;32.80;;
64520;SDS011;50896;46.714;17.322;2023-02-15T08:09:20;66.18;;;32.70;;
64520;SDS011;50896;46.714;17.322;2023-02-15T08:11:48;66.28;;;32.58;;
64520;SDS011;50896;46.714;17.322;2023-02-15T08:14:16;66.50;;;33.03;;
64520;SDS011;50896;46.714;17.322;2023-02-15T08:16:51;65.70;;;31.60;;
64520;SDS011;50896;46.714;17.322;2023-02-15T08:19:28;62.63;;;30.80;;
64520;SDS011;50896;46.714;17.322;2023-02-15T08:21:57;63.47;;;31.73;;
64520;SDS011;50896;46.714;17.322;2023-02-15T08:24:26;67.65;;;33.25;;
64520;SDS011;50896;46.714;17.322;2023-02-15T08:26:55;63.97;;;31.90;;
64520;SDS011;50896;46.714;17.322;2023-02-15T08:29:24;63.42;;;32.03;;
64520;SDS011;50896;46.714;17.322;2023-02-15T08:31:53;60.45;;;32.60;;
64520;SDS011;50896;46.714;17.322;2023-02-15T08:34:25;63.15;;;31.42;;
64520;SDS011;50896;46.714;17.322;2023-02-15T08:36:52;62.38;;;30.52;;
64520;SDS011;50896;46.714;17.322;2023-02-15T08:39:18;59.83;;;30.58;;
64520;SDS011;50896;46.714;17.322;2023-02-15T08:41:47;61.50;;;31.75;;
64520;SDS011;50896;46.714;17.322;2023-02-15T08:44:15;59.90;;;30.67;;
64520;SDS011;50896;46.714;17.322;2023-02-15T08:46:43;59.03;;;30.17;;
64520;SDS011;50896;46.714;17.322;2023-02-15T08:49:12;62.65;;;32.47;;
64520;SDS011;50896;46.714;17.322;2023-02-15T08:51:42;66.18;;;30.35;;
64520;SDS011;50896;46.714;17.322;2023-02-15T08:54:10;61.13;;;30.08;;
64520;SDS011;50896;46.714;17.322;2023-02-15T08:56:40;59.80;;;29.40;;
64520;SDS011;50896;46.714;17.322;2023-02-15T08:59:11;61.65;;;31.48;;
64520;SDS011;50896;46.714;17.322;2023-02-15T09:01:43;62.10;;;30.50;;
64520;SDS011;50896;46.714;17.322;2023-02-15T09:04:11;65.38;;;30.60;;
64520;SDS011;50896;46.714;17.322;2023-02-15T09:06:40;59.63;;;30.67;;
64520;SDS011;50896;46.714;17.322;2023-02-15T09:09:10;59.50;;;29.42;;
64520;SDS011;50896;46.714;17.322;2023-02-15T09:11:38;62.83;;;30.25;;
64520;SDS011;50896;46.714;17.322;2023-02-15T09:14:10;57.45;;;29.60;;
64520;SDS011;50896;46.714;17.322;2023-02-15T09:16:42;64.13;;;31.05;;
64520;SDS011;50896;46.714;17.322;2023-02-15T09:19:13;62.30;;;31.15;;
64520;SDS011;50896;46.714;17.322;2023-02-15T09:21:40;63.50;;;31.52;;
64520;SDS011;50896;46.714;17.322;2023-02-15T09:24:07;57.50;;;29.75;;
64520;SDS011;50896;46.714;17.322;2023-02-15T09:26:37;57.85;;;29.45;;
64520;SDS011;50896;46.714;17.322;2023-02-15T09:29:07;52.80;;;28.55;;
64520;SDS011;50896;46.714;17.322;2023-02-15T09:31:40;56.50;;;29.17;;
64520;SDS011;50896;46.714;17.322;2023-02-15T09:34:12;55.10;;;29.25;;
64520;SDS011;50896;46.714;17.322;2023-02-15T09:36:40;59.00;;;29.85;;
64520;SDS011;50896;46.714;17.322;2023-02-15T09:39:11;59.20;;;30.85;;
64520;SDS011;50896;46.714;17.322;2023-02-15T10:06:28;60.55;;;29.63;;
64520;SDS011;50896;46.714;17.322;2023-02-15T10:09:02;56.45;;;28.85;;
64520;SDS011;50896;46.714;17.322;2023-02-15T10:11:44;53.30;;;28.63;;
64520;SDS011;50896;46.714;17.322;2023-02-15T10:28:09;58.85;;;29.25;;
64520;SDS011;50896;46.714;17.322;2023-02-15T10:33:40;58.35;;;29.92;;
64520;SDS011;50896;46.714;17.322;2023-02-15T10:41:53;56.80;;;28.98;;
64520;SDS011;50896;46.714;17.322;2023-02-15T10:47:22;55.97;;;29.02;;
64520;SDS011;50896;46.714;17.322;2023-02-15T10:50:18;57.13;;;29.02;;
64520;SDS011;50896;46.714;17.322;2023-02-15T10:58:29;54.40;;;27.73;;
64520;SDS011;50896;46.714;17.322;2023-02-15T11:01:13;54.83;;;29.92;;
64520;SDS011;50896;46.714;17.322;2023-02-15T11:06:35;54.55;;;28.20;;
64520;SDS011;50896;46.714;17.322;2023-02-15T11:09:09;57.35;;;29.63;;
64520;SDS011;50896;46.714;17.322;2023-02-15T11:11:45;56.88;;;30.55;;
64520;SDS011;50896;46.714;17.322;2023-02-15T11:17:40;58.55;;;30.00;;
64520;SDS011;50896;46.714;17.322;2023-02-15T11:22:49;58.40;;;30.50;;
64520;SDS011;50896;46.714;17.322;2023-02-15T11:25:28;58.33;;;29.35;;
64520;SDS011;50896;46.714;17.322;2023-02-15T11:27:57;52.08;;;27.98;;
64520;SDS011;50896;46.714;17.322;2023-02-15T11:30:27;54.20;;;27.15;;
64520;SDS011;50896;46.714;17.322;2023-02-15T11:33:05;52.15;;;27.73;;
64520;SDS011;50896;46.714;17.322;2023-02-15T11:35:37;46.55;;;25.30;;
64520;SDS011;50896;46.714;17.322;2023-02-15T11:38:14;42.90;;;22.92;;
64520;SDS011;50896;46.714;17.322;2023-02-15T11:40:48;39.42;;;22.52;;
64520;SDS011;50896;46.714;17.322;2023-02-15T11:43:30;40.03;;;22.45;;
64520;SDS011;50896;46.714;17.322;2023-02-15T11:46:03;37.38;;;22.70;;
64520;SDS011;50896;46.714;17.322;2023-02-15T11:48:31;38.35;;;22.42;;
64520;SDS011;50896;46.714;17.322;2023-02-15T11:50:59;37.70;;;21.60;;
64520;SDS011;50896;46.714;17.322;2023-02-15T11:53:31;33.85;;;21.80;;
64520;SDS011;50896;46.714;17.322;2023-02-15T11:56:00;33.78;;;21.38;;
64520;SDS011;50896;46.714;17.322;2023-02-15T11:58:32;35.25;;;22.67;;
64520;SDS011;50896;46.714;17.322;2023-02-15T12:01:11;38.90;;;22.58;;
64520;SDS011;50896;46.714;17.322;2023-02-15T12:03:48;38.78;;;21.95;;
64520;SDS011;50896;46.714;17.322;2023-02-15T12:06:25;32.70;;;20.73;;
64520;SDS011;50896;46.714;17.322;2023-02-15T12:09:01;34.20;;;21.27;;
64520;SDS011;50896;46.714;17.322;2023-02-15T12:11:39;32.35;;;20.23;;
64520;SDS011;50896;46.714;17.322;2023-02-15T12:14:10;35.85;;;21.65;;
64520;SDS011;50896;46.714;17.322;2023-02-15T12:16:49;31.40;;;19.38;;
64520;SDS011;50896;46.714;17.322;2023-02-15T12:19:27;31.45;;;20.20;;
64520;SDS011;50896;46.714;17.322;2023-02-15T12:21:54;33.03;;;19.92;;
64520;SDS011;50896;46.714;17.322;2023-02-15T12:24:34;28.33;;;18.33;;
64520;SDS011;50896;46.714;17.322;2023-02-15T12:27:14;32.65;;;18.70;;
64520;SDS011;50896;46.714;17.322;2023-02-15T12:29:45;29.70;;;18.10;;
64520;SDS011;50896;46.714;17.322;2023-02-15T12:32:17;32.88;;;19.00;;
64520;SDS011;50896;46.714;17.322;2023-02-15T12:34:49;32.08;;;18.77;;
64520;SDS011;50896;46.714;17.322;2023-02-15T12:37:22;32.93;;;18.67;;
64520;SDS011;50896;46.714;17.322;2023-02-15T12:39:56;32.67;;;20.13;;
64520;SDS011;50896;46.714;17.322;2023-02-15T12:42:25;37.20;;;19.95;;
64520;SDS011;50896;46.714;17.322;2023-02-15T12:44:59;30.13;;;18.05;;
64520;SDS011;50896;46.714;17.322;2023-02-15T12:47:28;32.55;;;19.55;;
64520;SDS011;50896;46.714;17.322;2023-02-15T12:50:21;35.40;;;19.13;;
64520;SDS011;50896;46.714;17.322;2023-02-15T12:52:50;30.90;;;18.85;;
64520;SDS011;50896;46.714;17.322;2023-02-15T12:55:21;36.88;;;19.67;;
64520;SDS011;50896;46.714;17.322;2023-02-15T12:58:06;31.25;;;18.25;;
64520;SDS011;50896;46.714;17.322;2023-02-15T13:00:53;36.08;;;19.48;;
64520;SDS011;50896;46.714;17.322;2023-02-15T13:03:30;40.70;;;20.67;;
64520;SDS011;50896;46.714;17.322;2023-02-15T13:05:57;30.90;;;18.13;;
64520;SDS011;50896;46.714;17.322;2023-02-15T13:08:28;37.42;;;19.83;;
64520;SDS011;50896;46.714;17.322;2023-02-15T13:11:10;37.22;;;19.77;;
64520;SDS011;50896;46.714;17.322;2023-02-15T13:16:19;32.17;;;18.55;;
64520;SDS011;50896;46.714;17.322;2023-02-15T13:18:55;35.80;;;19.40;;
64520;SDS011;50896;46.714;17.322;2023-02-15T13:21:25;36.40;;;20.10;;
64520;SDS011;50896;46.714;17.322;2023-02-15T13:23:59;32.67;;;18.98;;
64520;SDS011;50896;46.714;17.322;2023-02-15T13:26:29;33.17;;;18.83;;
64520;SDS011;50896;46.714;17.322;2023-02-15T13:28:59;36.85;;;19.73;;
64520;SDS011;50896;46.714;17.322;2023-02-15T13:31:34;40.33;;;20.00;;
64520;SDS011;50896;46.714;17.322;2023-02-15T13:37:05;36.55;;;20.50;;
64520;SDS011;50896;46.714;17.322;2023-02-15T13:39:52;37.42;;;20.10;;
64520;SDS011;50896;46.714;17.322;2023-02-15T13:42:26;34.78;;;19.50;;
64520;SDS011;50896;46.714;17.322;2023-02-15T13:56:35;34.17;;;18.67;;
64520;SDS011;50896;46.714;17.322;2023-02-15T14:24:55;39.97;;;20.42;;
64520;SDS011;50896;46.714;17.322;2023-02-15T14:30:24;35.17;;;20.27;;
64520;SDS011;50896;46.714;17.322;2023-02-15T14:32:57;44.53;;;20.95;;
64520;SDS011;50896;46.714;17.322;2023-02-15T14:35:27;37.78;;;19.85;;
64520;SDS011;50896;46.714;17.322;2023-02-15T14:43:26;35.10;;;18.80;;
64520;SDS011;50896;46.714;17.322;2023-02-15T14:46:00;34.47;;;18.80;;
64520;SDS011;50896;46.714;17.322;2023-02-15T14:54:07;32.15;;;18.13;;
64520;SDS011;50896;46.714;17.322;2023-02-15T14:56:34;31.92;;;18.08;;
64520;SDS011;50896;46.714;17.322;2023-02-15T14:59:11;34.15;;;18.98;;
64520;SDS011;50896;46.714;17.322;2023-02-15T15:01:41;34.60;;;18.08;;
64520;SDS011;50896;46.714;17.322;2023-02-15T15:04:23;33.38;;;19.08;;
64520;SDS011;50896;46.714;17.322;2023-02-15T15:07:04;33.75;;;19.17;;
64520;SDS011;50896;46.714;17.322;2023-02-15T15:09:38;35.17;;;19.17;;
64520;SDS011;50896;46.714;17.322;2023-02-15T15:14:52;33.03;;;19.02;;
64520;SDS011;50896;46.714;17.322;2023-02-15T15:20:02;31.55;;;17.88;;
64520;SDS011;50896;46.714;17.322;2023-02-15T15:22:32;35.47;;;19.25;;
64520;SDS011;50896;46.714;17.322;2023-02-15T15:25:01;33.65;;;19.25;;
64520;SDS011;50896;46.714;17.322;2023-02-15T15:35:25;34.15;;;18.98;;
64520;SDS011;50896;46.714;17.322;2023-02-15T15:38:17;36.72;;;19.08;;
64520;SDS011;50896;46.714;17.322;2023-02-15T15:43:51;36.65;;;21.00;;
64520;SDS011;50896;46.714;17.322;2023-02-15T15:49:08;37.80;;;20.02;;
64520;SDS011;50896;46.714;17.322;2023-02-15T15:51:40;37.45;;;20.67;;
64520;SDS011;50896;46.714;17.322;2023-02-15T15:54:12;37.93;;;20.63;;
64520;SDS011;50896;46.714;17.322;2023-02-15T15:56:44;42.88;;;22.60;;
64520;SDS011;50896;46.714;17.322;2023-02-15T15:59:30;40.53;;;20.98;;
64520;SDS011;50896;46.714;17.322;2023-02-15T16:02:05;40.08;;;20.90;;
64520;SDS011;50896;46.714;17.322;2023-02-15T16:04:34;43.97;;;21.00;;
64520;SDS011;50896;46.714;17.322;2023-02-15T16:12:46;43.55;;;22.20;;
64520;SDS011;50896;46.714;17.322;2023-02-15T16:17:43;47.38;;;22.95;;
64520;SDS011;50896;46.714;17.322;2023-02-15T16:20:15;44.92;;;20.75;;
64520;SDS011;50896;46.714;17.322;2023-02-15T16:22:51;42.95;;;21.42;;
64520;SDS011;50896;46.714;17.322;2023-02-15T16:25:30;44.13;;;23.70;;
64520;SDS011;50896;46.714;17.322;2023-02-15T16:28:11;46.28;;;26.25;;
64520;SDS011;50896;46.714;17.322;2023-02-15T16:30:39;50.72;;;26.83;;
64520;SDS011;50896;46.714;17.322;2023-02-15T16:33:15;46.10;;;23.15;;
64520;SDS011;50896;46.714;17.322;2023-02-15T16:35:53;43.45;;;21.65;;
64520;SDS011;50896;46.714;17.322;2023-02-15T16:38:46;37.93;;;21.30;;
64520;SDS011;50896;46.714;17.322;2023-02-15T16:41:22;41.72;;;21.58;;
64520;SDS011;50896;46.714;17.322;2023-02-15T16:43:54;45.92;;;22.98;;
64520;SDS011;50896;46.714;17.322;2023-02-15T16:46:38;45.55;;;23.00;;
64520;SDS011;50896;46.714;17.322;2023-02-15T16:49:14;45.17;;;22.42;;
64520;SDS011;50896;46.714;17.322;2023-02-15T16:51:44;43.20;;;23.00;;
64520;SDS011;50896;46.714;17.322;2023-02-15T16:54:20;44.95;;;23.27;;
64520;SDS011;50896;46.714;17.322;2023-02-15T16:56:49;44.22;;;23.80;;
64520;SDS011;50896;46.714;17.322;2023-02-15T17:00:06;43.60;;;22.25;;
64520;SDS011;50896;46.714;17.322;2023-02-15T17:02:13;44.72;;;22.85;;
64520;SDS011;50896;46.714;17.322;2023-02-15T17:07:50;46.05;;;22.50;;
64520;SDS011;50896;46.714;17.322;2023-02-15T17:10:32;41.17;;;20.88;;
64520;SDS011;50896;46.714;17.322;2023-02-15T17:15:41;44.50;;;22.48;;
64520;SDS011;50896;46.714;17.322;2023-02-15T17:18:22;42.78;;;22.67;;
64520;SDS011;50896;46.714;17.322;2023-02-15T17:20:50;38.08;;;21.15;;
64520;SDS011;50896;46.714;17.322;2023-02-15T17:28:46;45.72;;;22.15;;
64520;SDS011;50896;46.714;17.322;2023-02-15T17:31:17;45.90;;;23.40;;
64520;SDS011;50896;46.714;17.322;2023-02-15T17:33:46;45.72;;;22.83;;
64520;SDS011;50896;46.714;17.322;2023-02-15T17:36:18;42.17;;;22.23;;
64520;SDS011;50896;46.714;17.322;2023-02-15T17:41:25;42.00;;;22.30;;
64520;SDS011;50896;46.714;17.322;2023-02-15T17:44:05;42.42;;;22.35;;
64520;SDS011;50896;46.714;17.322;2023-02-15T17:46:36;46.83;;;22.73;;
64520;SDS011;50896;46.714;17.322;2023-02-15T17:49:03;48.70;;;24.20;;
64520;SDS011;50896;46.714;17.322;2023-02-15T17:51:30;44.03;;;22.00;;
64520;SDS011;50896;46.714;17.322;2023-02-15T17:56:46;40.45;;;20.42;;
64520;SDS011;50896;46.714;17.322;2023-02-15T17:59:13;43.05;;;21.23;;
64520;SDS011;50896;46.714;17.322;2023-02-15T18:01:43;47.35;;;21.88;;
64520;SDS011;50896;46.714;17.322;2023-02-15T18:04:31;41.05;;;20.90;;
64520;SDS011;50896;46.714;17.322;2023-02-15T18:07:18;39.17;;;20.00;;
64520;SDS011;50896;46.714;17.322;2023-02-15T18:10:13;38.55;;;20.23;;
64520;SDS011;50896;46.714;17.322;2023-02-15T18:13:00;47.90;;;20.35;;
64520;SDS011;50896;46.714;17.322;2023-02-15T18:15:27;37.75;;;19.58;;